createdAt,value
2022-12-11T00:02:21.323Z,28.02
2022-12-11T00:04:48.585Z,24.67
2022-12-11T00:07:15.386Z,25.25
2022-12-11T00:09:42.533Z,26.75
2022-12-11T00:12:09.409Z,23.67
2022-12-11T00:14:36.723Z,25.10
2022-12-11T00:17:04.085Z,27.50
2022-12-11T00:19:31.325Z,24.23
2022-12-11T00:21:58.189Z,25.50
2022-12-11T00:24:25.254Z,25.15
2022-12-11T00:26:52.063Z,24.75
2022-12-11T00:29:19.124Z,25.42
2022-12-11T00:31:46.029Z,26.20
2022-12-11T00:34:13.202Z,25.98
2022-12-11T00:36:40.145Z,23.75
2022-12-11T00:39:07.363Z,26.73
2022-12-11T00:41:34.377Z,26.20
2022-12-11T00:44:02.107Z,30.73
2022-12-11T00:46:29.015Z,29.80
2022-12-11T00:48:56.131Z,25.75
2022-12-11T00:51:23.165Z,25.52
2022-12-11T00:53:50.257Z,28.50
2022-12-11T00:56:21.820Z,27.63
2022-12-11T00:58:49.756Z,25.75
2022-12-11T01:01:22.389Z,23.38
2022-12-11T01:03:50.497Z,27.52
2022-12-11T01:06:24.654Z,27.35
2022-12-11T01:09:12.493Z,26.60
2022-12-11T01:11:41.533Z,30.00
2022-12-11T01:14:11.183Z,26.17
2022-12-11T01:16:38.417Z,29.13
2022-12-11T01:19:05.591Z,28.15
2022-12-11T01:21:32.645Z,27.35
2022-12-11T01:23:59.859Z,27.55
2022-12-11T01:26:26.838Z,26.88
2022-12-11T01:28:53.931Z,25.92
2022-12-11T01:31:21.335Z,26.75
2022-12-11T01:33:48.764Z,23.08
2022-12-11T01:36:21.044Z,25.98
2022-12-11T01:38:49.550Z,25.17
2022-12-11T01:41:18.316Z,23.45
2022-12-11T01:44:29.062Z,27.63
2022-12-11T01:46:56.018Z,24.73
2022-12-11T01:49:29.008Z,27.40
2022-12-11T01:52:06.147Z,24.35
2022-12-11T01:54:35.443Z,27.95
2022-12-11T01:57:08.110Z,31.52
2022-12-11T01:59:41.247Z,30.92
2022-12-11T02:02:17.272Z,31.40
2022-12-11T02:04:46.365Z,27.38
2022-12-11T02:07:13.169Z,28.27
2022-12-11T02:09:45.404Z,28.65
2022-12-11T02:12:53.642Z,27.15
2022-12-11T02:15:51.627Z,32.15
2022-12-11T02:18:49.628Z,30.38
2022-12-11T02:21:31.665Z,26.63
2022-12-11T02:24:27.981Z,27.98
2022-12-11T02:27:08.159Z,24.35
2022-12-11T02:30:02.417Z,24.92
2022-12-11T02:32:52.676Z,22.80
2022-12-11T02:35:34.693Z,24.08
2022-12-11T02:38:16.824Z,20.27
2022-12-11T02:40:49.570Z,24.35
2022-12-11T02:43:20.262Z,22.95
2022-12-11T02:45:50.346Z,22.40
2022-12-11T02:48:21.228Z,21.30
2022-12-11T02:50:53.398Z,23.13
2022-12-11T02:53:28.859Z,19.73
2022-12-11T02:56:18.838Z,20.50
2022-12-11T02:58:58.362Z,20.10
2022-12-11T03:01:27.398Z,18.10
2022-12-11T03:03:56.593Z,17.38
2022-12-11T03:06:35.665Z,21.40
2022-12-11T03:09:05.576Z,18.40
2022-12-11T03:11:32.631Z,18.33
2022-12-11T03:14:02.992Z,16.45
2022-12-11T03:16:42.904Z,20.63
2022-12-11T03:19:35.635Z,16.92
2022-12-11T03:22:37.471Z,17.63
2022-12-11T03:25:14.974Z,19.65
2022-12-11T03:28:01.545Z,19.08
2022-12-11T03:30:34.018Z,17.42
2022-12-11T03:33:10.884Z,20.90
2022-12-11T03:35:45.041Z,17.60
2022-12-11T03:38:22.497Z,19.55
2022-12-11T03:40:56.447Z,19.23
2022-12-11T03:43:23.503Z,18.20
2022-12-11T03:45:54.838Z,18.70
2022-12-11T03:48:25.471Z,19.75
2022-12-11T03:50:53.571Z,23.38
2022-12-11T03:53:21.973Z,20.55
2022-12-11T03:55:51.592Z,22.63
2022-12-11T03:58:18.452Z,24.75
2022-12-11T04:00:45.605Z,21.27
2022-12-11T04:03:17.835Z,20.30
2022-12-11T04:05:49.773Z,22.85
2022-12-11T04:08:18.972Z,21.30
2022-12-11T04:10:46.924Z,20.75
2022-12-11T04:13:14.312Z,22.75
2022-12-11T04:15:41.712Z,22.92
2022-12-11T04:18:28.945Z,22.52
2022-12-11T04:21:15.415Z,22.80
2022-12-11T04:24:00.862Z,19.85
2022-12-11T04:26:28.106Z,18.17
2022-12-11T04:28:54.892Z,18.27
2022-12-11T04:31:23.435Z,22.98
2022-12-11T04:33:50.493Z,21.65
2022-12-11T04:36:17.749Z,21.05
2022-12-11T04:38:44.592Z,20.63
2022-12-11T04:41:14.503Z,15.63
2022-12-11T04:43:45.206Z,19.42
2022-12-11T04:46:20.115Z,23.17
2022-12-11T04:48:49.259Z,27.02
2022-12-11T04:51:20.033Z,20.38
2022-12-11T04:53:46.991Z,23.90
2022-12-11T04:56:17.113Z,21.98
2022-12-11T04:58:44.942Z,19.65
2022-12-11T05:01:19.198Z,22.30
2022-12-11T05:03:47.173Z,20.63
2022-12-11T05:06:15.267Z,19.80
2022-12-11T05:08:43.888Z,19.48
2022-12-11T05:11:15.293Z,22.08
2022-12-11T05:13:42.961Z,19.17
2022-12-11T05:16:15.426Z,19.85
2022-12-11T05:18:43.095Z,15.18
2022-12-11T05:21:13.787Z,17.40
2022-12-11T05:23:41.848Z,18.38
2022-12-11T05:26:16.114Z,19.17
2022-12-11T05:28:44.385Z,18.33
2022-12-11T05:31:19.350Z,16.55
2022-12-11T05:33:48.531Z,20.77
2022-12-11T05:36:29.899Z,17.27
2022-12-11T05:38:59.801Z,21.02
2022-12-11T05:41:30.108Z,14.95
2022-12-11T05:43:57.443Z,16.98
2022-12-11T05:46:28.653Z,17.10
2022-12-11T05:48:59.513Z,16.27
2022-12-11T05:51:29.097Z,17.67
2022-12-11T05:53:57.784Z,15.70
2022-12-11T05:56:35.130Z,16.02
2022-12-11T05:59:04.542Z,14.30
2022-12-11T06:01:42.406Z,17.25
2022-12-11T06:04:12.511Z,15.30
2022-12-11T06:06:40.724Z,17.75
2022-12-11T06:09:07.915Z,14.23
2022-12-11T06:11:36.072Z,16.73
2022-12-11T06:14:04.109Z,16.05
2022-12-11T06:16:32.552Z,14.02
2022-12-11T06:18:59.764Z,16.70
2022-12-11T06:21:33.195Z,16.55
2022-12-11T06:24:03.898Z,16.50
2022-12-11T06:26:32.253Z,15.10
2022-12-11T06:28:59.820Z,13.20
2022-12-11T06:31:27.700Z,16.25
2022-12-11T06:33:55.922Z,12.52
2022-12-11T06:36:24.762Z,13.40
2022-12-11T06:38:52.739Z,14.63
2022-12-11T06:41:19.828Z,15.05
2022-12-11T06:43:46.726Z,14.70
2022-12-11T06:46:18.195Z,15.82
2022-12-11T06:48:46.968Z,14.93
2022-12-11T06:51:23.285Z,19.75
2022-12-11T06:53:56.741Z,15.32
2022-12-11T06:56:25.042Z,12.65
2022-12-11T06:58:52.420Z,16.23
2022-12-11T07:01:27.769Z,15.80
2022-12-11T07:04:00.281Z,17.20
2022-12-11T07:06:29.052Z,14.57
2022-12-11T07:08:56.660Z,15.35
2022-12-11T07:11:24.398Z,16.20
2022-12-11T07:13:51.350Z,17.35
2022-12-11T07:16:19.329Z,16.63
2022-12-11T07:18:51.708Z,16.67
2022-12-11T07:21:20.820Z,16.55
2022-12-11T07:23:49.165Z,18.95
2022-12-11T07:26:21.660Z,17.55
2022-12-11T07:28:49.856Z,14.02
2022-12-11T07:31:25.850Z,16.77
2022-12-11T07:33:59.190Z,19.08
2022-12-11T07:36:27.647Z,17.65
2022-12-11T07:38:55.046Z,17.15
2022-12-11T07:41:23.585Z,19.33
2022-12-11T07:43:50.651Z,18.60
2022-12-11T07:46:25.155Z,20.02
2022-12-11T07:48:52.051Z,19.17
2022-12-11T07:51:27.996Z,18.90
2022-12-11T07:54:03.506Z,18.05
2022-12-11T07:56:33.099Z,20.17
2022-12-11T07:59:02.320Z,21.23
2022-12-11T08:01:33.572Z,19.40
2022-12-11T08:04:00.548Z,17.55
2022-12-11T08:06:31.792Z,18.27
2022-12-11T08:09:01.720Z,19.88
2022-12-11T08:11:29.883Z,18.50
2022-12-11T08:13:59.209Z,19.23
2022-12-11T08:16:27.367Z,17.02
2022-12-11T08:18:54.502Z,19.60
2022-12-11T08:21:25.396Z,18.80
2022-12-11T08:23:54.315Z,19.65
2022-12-11T08:26:25.557Z,17.63
2022-12-11T08:28:52.962Z,22.65
2022-12-11T08:31:21.360Z,22.33
2022-12-11T08:33:49.430Z,22.80
2022-12-11T08:36:20.959Z,20.33
2022-12-11T08:38:49.044Z,21.73
2022-12-11T08:41:24.318Z,17.88
2022-12-11T08:43:55.286Z,18.13
2022-12-11T08:46:25.849Z,17.98
2022-12-11T08:48:53.234Z,16.70
2022-12-11T08:51:26.121Z,20.45
2022-12-11T08:53:58.004Z,17.85
2022-12-11T08:56:27.254Z,18.27
2022-12-11T08:58:55.017Z,17.55
2022-12-11T09:01:27.048Z,18.33
2022-12-11T09:03:56.710Z,15.10
2022-12-11T09:06:28.266Z,16.80
2022-12-11T09:08:58.626Z,18.55
2022-12-11T09:11:33.981Z,18.35
2022-12-11T09:14:07.278Z,18.40
2022-12-11T09:16:40.622Z,16.70
2022-12-11T09:19:16.504Z,16.08
2022-12-11T09:21:45.123Z,17.75
2022-12-11T09:24:13.803Z,21.15
2022-12-11T09:26:41.720Z,16.30
2022-12-11T09:29:13.284Z,20.50
2022-12-11T09:31:41.020Z,17.23
2022-12-11T09:34:13.079Z,18.75
2022-12-11T09:36:42.206Z,16.70
2022-12-11T09:39:12.432Z,20.15
2022-12-11T09:42:00.937Z,16.50
2022-12-11T09:44:57.252Z,16.23
2022-12-11T09:47:27.548Z,15.18
2022-12-11T09:50:09.742Z,17.58
2022-12-11T09:53:02.798Z,15.13
2022-12-11T09:56:07.459Z,16.00
2022-12-11T09:58:44.218Z,14.73
2022-12-11T10:01:32.718Z,17.25
2022-12-11T10:04:28.401Z,13.38
2022-12-11T10:07:21.006Z,17.52
2022-12-11T10:10:09.065Z,13.57
2022-12-11T10:12:44.978Z,14.40
2022-12-11T10:15:37.026Z,14.52
2022-12-11T10:18:12.867Z,15.07
2022-12-11T10:20:40.568Z,14.98
2022-12-11T10:23:21.087Z,11.35
2022-12-11T10:26:17.254Z,12.23
2022-12-11T10:28:44.356Z,12.35
2022-12-11T10:31:26.268Z,10.75
2022-12-11T10:34:10.685Z,12.80
2022-12-11T10:36:42.073Z,11.13
2022-12-11T10:39:19.694Z,9.60
2022-12-11T10:41:53.419Z,11.20
2022-12-11T10:44:23.419Z,13.13
2022-12-11T10:47:17.990Z,10.85
2022-12-11T10:50:02.077Z,11.90
2022-12-11T10:52:39.104Z,12.82
2022-12-11T10:55:35.056Z,11.10
2022-12-11T10:58:06.636Z,10.57
2022-12-11T11:00:39.684Z,11.02
2022-12-11T11:03:23.876Z,9.88
2022-12-11T11:06:14.786Z,10.63
2022-12-11T11:08:47.570Z,11.98
2022-12-11T11:11:25.671Z,12.60
2022-12-11T11:14:21.561Z,13.30
2022-12-11T11:19:22.806Z,12.18
2022-12-11T11:22:00.806Z,11.98
2022-12-11T11:24:33.387Z,11.63
2022-12-11T11:27:16.240Z,13.80
2022-12-11T11:29:47.758Z,13.70
2022-12-11T11:32:39.032Z,11.77
2022-12-11T11:35:13.474Z,13.05
2022-12-11T11:37:59.917Z,10.82
2022-12-11T11:40:50.238Z,13.02
2022-12-11T11:43:46.537Z,12.68
2022-12-11T11:46:30.666Z,11.80
2022-12-11T11:49:12.673Z,13.70
2022-12-11T11:52:02.190Z,14.50
2022-12-11T11:54:40.828Z,14.63
2022-12-11T11:57:27.063Z,13.93
2022-12-11T11:59:59.639Z,18.40
2022-12-11T12:02:26.808Z,18.25
2022-12-11T12:04:53.803Z,14.57
2022-12-11T12:07:42.136Z,12.73
2022-12-11T12:10:33.852Z,15.90
2022-12-11T12:13:49.118Z,16.15
2022-12-11T12:16:53.764Z,13.50
2022-12-11T12:20:02.364Z,18.35
2022-12-11T12:23:04.354Z,15.52
2022-12-11T12:26:06.354Z,15.25
2022-12-11T12:29:10.058Z,14.88
2022-12-11T12:32:11.046Z,16.23
2022-12-11T12:34:59.773Z,17.00
2022-12-11T12:38:21.115Z,11.93
2022-12-11T12:41:14.293Z,13.75
2022-12-11T12:44:03.118Z,13.18
2022-12-11T12:46:55.627Z,13.00
2022-12-11T12:49:58.158Z,13.85
2022-12-11T12:52:32.691Z,14.07
2022-12-11T12:55:21.127Z,13.32
2022-12-11T12:58:00.445Z,13.20
2022-12-11T13:00:39.062Z,17.75
2022-12-11T13:03:20.938Z,13.85
2022-12-11T13:06:09.879Z,15.00
2022-12-11T13:08:50.393Z,12.63
2022-12-11T13:11:20.843Z,12.82
2022-12-11T13:14:01.917Z,14.85
2022-12-11T13:16:42.257Z,10.68
2022-12-11T13:19:30.821Z,14.20
2022-12-11T13:22:13.402Z,16.40
2022-12-11T13:25:04.825Z,12.60
2022-12-11T13:27:31.976Z,14.27
2022-12-11T13:30:23.309Z,16.83
2022-12-11T13:33:07.923Z,17.10
2022-12-11T13:35:35.701Z,15.97
2022-12-11T13:38:29.505Z,11.65
2022-12-11T13:40:57.691Z,15.00
2022-12-11T13:43:32.978Z,11.30
2022-12-11T13:46:15.115Z,10.82
2022-12-11T13:49:35.995Z,11.45
2022-12-11T13:52:04.498Z,12.25
2022-12-11T13:54:36.491Z,11.88
2022-12-11T13:57:09.169Z,9.40
2022-12-11T13:59:41.903Z,11.52
2022-12-11T14:02:29.783Z,12.93
2022-12-11T14:05:12.294Z,13.00
2022-12-11T14:07:47.928Z,14.85
2022-12-11T14:10:14.941Z,15.05
2022-12-11T14:12:59.661Z,13.60
2022-12-11T14:15:30.161Z,10.32
2022-12-11T14:17:59.427Z,11.80
2022-12-11T14:20:31.877Z,12.50
2022-12-11T14:23:18.539Z,10.60
2022-12-11T14:25:58.794Z,9.68
2022-12-11T14:28:29.845Z,10.60
2022-12-11T14:31:01.704Z,13.77
2022-12-11T14:33:35.587Z,11.23
2022-12-11T14:36:04.381Z,10.65
2022-12-11T14:38:43.521Z,12.93
2022-12-11T14:41:21.655Z,9.25
2022-12-11T14:43:59.256Z,10.23
2022-12-11T14:46:42.115Z,11.43
2022-12-11T14:49:49.468Z,9.88
2022-12-11T14:52:31.671Z,8.52
2022-12-11T14:55:08.645Z,12.20
2022-12-11T14:57:39.877Z,10.07
2022-12-11T15:00:07.786Z,12.80
2022-12-11T15:02:36.934Z,11.38
2022-12-11T15:05:18.918Z,10.43
2022-12-11T15:08:24.441Z,11.80
2022-12-11T15:11:08.724Z,10.85
2022-12-11T15:13:54.424Z,10.27
2022-12-11T15:16:25.129Z,10.57
2022-12-11T15:18:55.711Z,10.45
2022-12-11T15:21:33.262Z,13.32
2022-12-11T15:24:05.442Z,11.57
2022-12-11T15:26:46.960Z,11.02
2022-12-11T15:29:37.574Z,13.77
2022-12-11T15:32:14.183Z,13.82
2022-12-11T15:34:52.862Z,12.77
2022-12-11T15:37:29.764Z,11.57
2022-12-11T15:40:00.495Z,11.18
2022-12-11T15:42:39.027Z,10.43
2022-12-11T15:45:15.579Z,10.38
2022-12-11T15:47:43.986Z,11.52
2022-12-11T15:50:30.253Z,12.07
2022-12-11T15:52:57.497Z,12.95
2022-12-11T15:55:34.239Z,12.02
2022-12-11T15:58:19.650Z,11.60
2022-12-11T16:00:50.786Z,12.15
2022-12-11T16:03:20.846Z,13.00
2022-12-11T16:05:50.836Z,14.27
2022-12-11T16:08:21.757Z,14.85
2022-12-11T16:10:52.601Z,15.70
2022-12-11T16:13:19.609Z,11.27
2022-12-11T16:15:51.486Z,13.02
2022-12-11T16:18:22.490Z,12.90
2022-12-11T16:20:51.657Z,14.05
2022-12-11T16:23:19.449Z,16.05
2022-12-11T16:25:47.742Z,16.38
2022-12-11T16:28:18.372Z,13.93
2022-12-11T16:30:45.901Z,14.77
2022-12-11T16:33:13.694Z,12.18
2022-12-11T16:35:42.922Z,13.50
2022-12-11T16:38:11.574Z,12.95
2022-12-11T16:40:39.048Z,12.70
2022-12-11T16:43:06.196Z,13.50
2022-12-11T16:45:34.036Z,14.77
2022-12-11T16:48:04.789Z,13.85
2022-12-11T16:50:32.478Z,13.88
2022-12-11T16:52:59.536Z,14.32
2022-12-11T16:55:26.852Z,10.77
2022-12-11T16:57:54.378Z,10.98
2022-12-11T17:00:21.576Z,13.52
2022-12-11T17:02:48.538Z,15.00
2022-12-11T17:05:15.886Z,19.55
2022-12-11T17:07:42.760Z,17.45
2022-12-11T17:10:10.947Z,14.60
2022-12-11T17:12:39.038Z,17.30
2022-12-11T17:15:07.122Z,15.85
2022-12-11T17:17:34.084Z,16.98
2022-12-11T17:20:01.365Z,21.85
2022-12-11T17:22:28.536Z,15.82
2022-12-11T17:24:57.298Z,17.42
2022-12-11T17:27:24.536Z,18.23
2022-12-11T17:29:51.771Z,15.65
2022-12-11T17:32:18.921Z,16.60
2022-12-11T17:34:48.541Z,18.02
2022-12-11T17:37:15.704Z,18.10
2022-12-11T17:39:44.209Z,17.48
2022-12-11T17:42:11.134Z,18.80
2022-12-11T17:44:38.893Z,17.23
2022-12-11T17:47:10.787Z,20.70
2022-12-11T17:49:40.498Z,18.60
2022-12-11T17:52:07.809Z,17.75
2022-12-11T17:54:35.170Z,16.92
2022-12-11T17:57:03.012Z,16.48
2022-12-11T17:59:30.141Z,20.20
2022-12-11T18:01:58.071Z,18.58
2022-12-11T18:04:25.673Z,18.10
2022-12-11T18:06:52.541Z,15.40
2022-12-11T18:09:19.845Z,21.17
2022-12-11T18:11:46.878Z,18.73
2022-12-11T18:14:17.388Z,15.45
2022-12-11T18:16:44.873Z,22.15
2022-12-11T18:19:12.831Z,14.88
2022-12-11T18:21:45.789Z,18.27
2022-12-11T18:24:13.045Z,18.10
2022-12-11T18:26:42.754Z,14.38
2022-12-11T18:29:10.207Z,16.33
2022-12-11T18:31:42.171Z,19.13
2022-12-11T18:34:11.601Z,16.27
2022-12-11T18:36:40.683Z,19.10
2022-12-11T18:39:07.970Z,13.93
2022-12-11T18:41:34.807Z,15.77
2022-12-11T18:44:08.110Z,16.27
2022-12-11T18:46:37.523Z,16.30
2022-12-11T18:49:05.565Z,14.95
2022-12-11T18:51:32.580Z,19.55
2022-12-11T18:53:59.877Z,17.58
2022-12-11T18:56:26.803Z,18.65
2022-12-11T18:58:54.117Z,16.05
2022-12-11T19:01:26.863Z,16.08
2022-12-11T19:04:02.719Z,18.30
2022-12-11T19:06:33.366Z,16.63
2022-12-11T19:09:00.798Z,17.48
2022-12-11T19:11:31.618Z,16.98
2022-12-11T19:13:59.702Z,15.82
2022-12-11T19:16:36.887Z,17.45
2022-12-11T19:19:20.424Z,17.85
2022-12-11T19:21:48.983Z,16.25
2022-12-11T19:24:22.492Z,16.95
2022-12-11T19:26:50.514Z,16.92
2022-12-11T19:29:29.697Z,17.25
2022-12-11T19:31:56.829Z,19.75
2022-12-11T19:34:25.226Z,16.65
2022-12-11T19:36:52.371Z,16.80
2022-12-11T19:39:20.091Z,21.10
2022-12-11T19:41:47.696Z,16.63
2022-12-11T19:44:15.343Z,16.83
2022-12-11T19:46:42.384Z,21.98
2022-12-11T19:49:11.840Z,13.90
2022-12-11T19:51:42.330Z,14.68
2022-12-11T19:54:14.594Z,16.70
2022-12-11T19:56:41.651Z,16.98
2022-12-11T19:59:15.445Z,15.32
2022-12-11T20:01:46.767Z,17.92
2022-12-11T20:04:17.447Z,16.70
2022-12-11T20:06:46.411Z,16.63
2022-12-11T20:09:14.134Z,15.80
2022-12-11T20:11:44.332Z,18.42
2022-12-11T20:14:20.734Z,16.75
2022-12-11T20:19:36.274Z,15.80
2022-12-11T20:22:03.656Z,18.77
2022-12-11T20:24:31.663Z,18.98
2022-12-11T20:26:58.573Z,16.73
2022-12-11T20:29:25.784Z,16.98
2022-12-11T20:31:53.012Z,18.85
2022-12-11T20:34:20.300Z,17.27
2022-12-11T20:36:48.594Z,18.83
2022-12-11T20:39:15.930Z,18.65
2022-12-11T20:41:43.071Z,18.17
2022-12-11T20:44:10.309Z,21.45
2022-12-11T20:46:37.165Z,18.73
2022-12-11T20:49:04.628Z,17.58
2022-12-11T20:51:32.835Z,18.55
2022-12-11T20:54:00.348Z,20.63
2022-12-11T20:56:30.626Z,18.95
2022-12-11T20:58:59.979Z,21.48
2022-12-11T21:01:31.384Z,21.45
2022-12-11T21:03:59.921Z,17.77
2022-12-11T21:06:37.316Z,19.02
2022-12-11T21:09:15.799Z,17.05
2022-12-11T21:11:42.767Z,17.60
2022-12-11T21:14:10.657Z,17.60
2022-12-11T21:16:38.261Z,14.93
2022-12-11T21:19:06.883Z,19.80
2022-12-11T21:21:42.293Z,18.95
2022-12-11T21:24:26.436Z,18.13
2022-12-11T21:26:56.094Z,17.48
2022-12-11T21:29:26.587Z,15.80
2022-12-11T21:31:53.764Z,16.30
2022-12-11T21:34:25.216Z,14.23
2022-12-11T21:36:56.862Z,17.13
2022-12-11T21:39:28.553Z,18.15
2022-12-11T21:41:55.610Z,17.33
2022-12-11T21:47:09.782Z,16.75
2022-12-11T21:49:37.342Z,18.38
2022-12-11T21:52:04.706Z,20.40
2022-12-11T21:54:31.825Z,18.45
2022-12-11T21:56:58.722Z,19.23
2022-12-11T21:59:25.979Z,20.27
2022-12-11T22:01:52.899Z,21.52
2022-12-11T22:04:20.381Z,20.00
2022-12-11T22:06:48.205Z,19.40
2022-12-11T22:09:18.012Z,20.35
2022-12-11T22:11:46.249Z,20.77
2022-12-11T22:14:16.701Z,18.65
2022-12-11T22:16:44.615Z,21.77
2022-12-11T22:19:12.361Z,20.63
2022-12-11T22:21:40.050Z,21.27
2022-12-11T22:24:08.106Z,21.67
2022-12-11T22:26:35.014Z,21.50
2022-12-11T22:29:02.187Z,18.92
2022-12-11T22:31:29.166Z,19.73
2022-12-11T22:33:56.481Z,20.70
2022-12-11T22:36:26.199Z,20.23
2022-12-11T22:38:53.462Z,20.85
2022-12-11T22:41:27.541Z,19.90
2022-12-11T22:43:55.739Z,20.90
2022-12-11T22:46:26.119Z,15.77
2022-12-11T22:48:54.371Z,17.30
2022-12-11T22:51:22.807Z,19.98
2022-12-11T22:53:50.217Z,20.58
2022-12-11T22:56:17.306Z,23.05
2022-12-11T22:58:44.648Z,19.67
2022-12-11T23:01:19.674Z,19.70
2022-12-11T23:03:48.209Z,18.73
2022-12-11T23:06:19.779Z,20.58
2022-12-11T23:08:47.166Z,20.90
2022-12-11T23:11:22.702Z,18.88
2022-12-11T23:13:50.474Z,19.23
2022-12-11T23:16:17.777Z,20.23
2022-12-11T23:18:45.392Z,19.83
2022-12-11T23:21:12.774Z,16.48
2022-12-11T23:23:41.201Z,18.27
2022-12-11T23:26:12.405Z,23.33
2022-12-11T23:28:41.026Z,19.23
2022-12-11T23:31:09.354Z,19.42
2022-12-11T23:33:37.763Z,20.08
2022-12-11T23:36:05.436Z,17.75
2022-12-11T23:38:32.893Z,17.98
2022-12-11T23:41:02.110Z,14.75
2022-12-11T23:43:30.067Z,16.15
2022-12-11T23:45:57.810Z,18.58
2022-12-11T23:48:25.446Z,17.63
2022-12-11T23:50:52.670Z,17.58
2022-12-11T23:53:19.853Z,19.30
2022-12-11T23:55:46.687Z,20.00
2022-12-11T23:58:13.859Z,19.08
